sensor_id;sensor_type;location;lat;lon;timestamp;P1;durP1;ratioP1;P2;durP2;ratioP2
4583;SDS011;2304;47.606;12.186;2023-07-28T00:04:41;7.40;;;4.10;;
4583;SDS011;2304;47.606;12.186;2023-07-28T00:09:43;5.70;;;4.07;;
4583;SDS011;2304;47.606;12.186;2023-07-28T00:14:46;7.00;;;4.20;;
4583;SDS011;2304;47.606;12.186;2023-07-28T00:19:48;5.60;;;4.00;;
4583;SDS011;2304;47.606;12.186;2023-07-28T00:24:50;7.70;;;4.13;;
4583;SDS011;2304;47.606;12.186;2023-07-28T00:29:53;7.80;;;4.40;;
4583;SDS011;2304;47.606;12.186;2023-07-28T00:34:55;5.90;;;4.27;;
4583;SDS011;2304;47.606;12.186;2023-07-28T00:39:57;5.40;;;4.23;;
4583;SDS011;2304;47.606;12.186;2023-07-28T00:45:00;7.27;;;4.43;;
4583;SDS011;2304;47.606;12.186;2023-07-28T00:50:02;11.57;;;3.67;;
4583;SDS011;2304;47.606;12.186;2023-07-28T00:55:05;6.47;;;3.93;;
4583;SDS011;2304;47.606;12.186;2023-07-28T01:00:09;7.67;;;4.17;;
4583;SDS011;2304;47.606;12.186;2023-07-28T01:05:12;7.67;;;4.40;;
4583;SDS011;2304;47.606;12.186;2023-07-28T01:10:17;6.80;;;4.20;;
4583;SDS011;2304;47.606;12.186;2023-07-28T01:15:23;6.60;;;3.67;;
4583;SDS011;2304;47.606;12.186;2023-07-28T01:20:26;6.63;;;3.70;;
4583;SDS011;2304;47.606;12.186;2023-07-28T01:25:36;6.07;;;3.63;;
4583;SDS011;2304;47.606;12.186;2023-07-28T01:30:46;5.03;;;3.20;;
4583;SDS011;2304;47.606;12.186;2023-07-28T01:35:48;5.87;;;3.63;;
4583;SDS011;2304;47.606;12.186;2023-07-28T01:40:50;6.10;;;4.23;;
4583;SDS011;2304;47.606;12.186;2023-07-28T01:45:54;6.83;;;4.60;;
4583;SDS011;2304;47.606;12.186;2023-07-28T01:50:56;6.27;;;4.30;;
4583;SDS011;2304;47.606;12.186;2023-07-28T01:55:58;7.93;;;4.20;;
4583;SDS011;2304;47.606;12.186;2023-07-28T02:01:02;5.33;;;3.60;;
4583;SDS011;2304;47.606;12.186;2023-07-28T02:06:04;9.70;;;3.80;;
4583;SDS011;2304;47.606;12.186;2023-07-28T02:11:06;6.43;;;4.10;;
4583;SDS011;2304;47.606;12.186;2023-07-28T02:16:09;6.73;;;3.57;;
4583;SDS011;2304;47.606;12.186;2023-07-28T02:21:11;5.50;;;3.90;;
4583;SDS011;2304;47.606;12.186;2023-07-28T02:26:12;6.47;;;3.80;;
4583;SDS011;2304;47.606;12.186;2023-07-28T02:31:16;4.57;;;3.60;;
4583;SDS011;2304;47.606;12.186;2023-07-28T02:36:17;8.70;;;4.13;;
4583;SDS011;2304;47.606;12.186;2023-07-28T02:41:19;6.87;;;4.13;;
4583;SDS011;2304;47.606;12.186;2023-07-28T02:46:23;9.53;;;4.03;;
4583;SDS011;2304;47.606;12.186;2023-07-28T02:51:25;5.27;;;3.40;;
4583;SDS011;2304;47.606;12.186;2023-07-28T02:56:27;5.67;;;3.73;;
4583;SDS011;2304;47.606;12.186;2023-07-28T03:01:30;6.90;;;4.00;;
4583;SDS011;2304;47.606;12.186;2023-07-28T03:06:33;8.93;;;3.87;;
4583;SDS011;2304;47.606;12.186;2023-07-28T03:11:35;7.03;;;3.80;;
4583;SDS011;2304;47.606;12.186;2023-07-28T03:16:39;5.67;;;3.87;;
4583;SDS011;2304;47.606;12.186;2023-07-28T03:21:41;9.63;;;4.43;;
4583;SDS011;2304;47.606;12.186;2023-07-28T03:26:43;7.23;;;4.20;;
4583;SDS011;2304;47.606;12.186;2023-07-28T03:31:46;5.17;;;4.03;;
4583;SDS011;2304;47.606;12.186;2023-07-28T03:36:48;5.30;;;3.50;;
4583;SDS011;2304;47.606;12.186;2023-07-28T03:41:50;7.10;;;3.90;;
4583;SDS011;2304;47.606;12.186;2023-07-28T03:46:53;6.70;;;4.17;;
4583;SDS011;2304;47.606;12.186;2023-07-28T03:51:55;4.97;;;3.63;;
4583;SDS011;2304;47.606;12.186;2023-07-28T03:56:57;7.83;;;4.17;;
4583;SDS011;2304;47.606;12.186;2023-07-28T04:02:00;6.03;;;3.90;;
4583;SDS011;2304;47.606;12.186;2023-07-28T04:07:02;8.50;;;3.90;;
4583;SDS011;2304;47.606;12.186;2023-07-28T04:12:05;7.00;;;3.80;;
4583;SDS011;2304;47.606;12.186;2023-07-28T04:17:08;5.10;;;3.63;;
4583;SDS011;2304;47.606;12.186;2023-07-28T04:22:11;6.13;;;4.30;;
4583;SDS011;2304;47.606;12.186;2023-07-28T04:27:13;8.60;;;4.20;;
4583;SDS011;2304;47.606;12.186;2023-07-28T04:32:17;7.80;;;4.60;;
4583;SDS011;2304;47.606;12.186;2023-07-28T04:37:19;6.70;;;4.60;;
4583;SDS011;2304;47.606;12.186;2023-07-28T04:42:20;6.50;;;4.00;;
4583;SDS011;2304;47.606;12.186;2023-07-28T04:47:24;6.50;;;3.47;;
4583;SDS011;2304;47.606;12.186;2023-07-28T04:52:26;10.83;;;4.37;;
4583;SDS011;2304;47.606;12.186;2023-07-28T04:57:27;12.27;;;5.33;;
4583;SDS011;2304;47.606;12.186;2023-07-28T05:02:31;9.67;;;4.50;;
4583;SDS011;2304;47.606;12.186;2023-07-28T05:07:33;7.03;;;4.00;;
4583;SDS011;2304;47.606;12.186;2023-07-28T05:12:34;10.83;;;4.10;;
4583;SDS011;2304;47.606;12.186;2023-07-28T05:17:38;8.47;;;4.20;;
4583;SDS011;2304;47.606;12.186;2023-07-28T05:22:39;12.20;;;5.03;;
4583;SDS011;2304;47.606;12.186;2023-07-28T05:27:41;6.30;;;4.10;;
4583;SDS011;2304;47.606;12.186;2023-07-28T05:32:45;7.27;;;4.13;;
4583;SDS011;2304;47.606;12.186;2023-07-28T05:37:47;9.10;;;4.40;;
4583;SDS011;2304;47.606;12.186;2023-07-28T05:42:49;9.70;;;4.67;;
4583;SDS011;2304;47.606;12.186;2023-07-28T05:47:52;5.73;;;4.23;;
4583;SDS011;2304;47.606;12.186;2023-07-28T05:52:54;10.80;;;4.40;;
4583;SDS011;2304;47.606;12.186;2023-07-28T05:57:56;7.10;;;4.53;;
4583;SDS011;2304;47.606;12.186;2023-07-28T06:02:59;7.53;;;4.57;;
4583;SDS011;2304;47.606;12.186;2023-07-28T06:08:01;7.40;;;4.50;;
4583;SDS011;2304;47.606;12.186;2023-07-28T06:13:03;6.63;;;4.43;;
4583;SDS011;2304;47.606;12.186;2023-07-28T06:18:06;11.50;;;4.60;;
4583;SDS011;2304;47.606;12.186;2023-07-28T06:23:08;7.13;;;4.60;;
4583;SDS011;2304;47.606;12.186;2023-07-28T06:28:10;8.47;;;5.00;;
4583;SDS011;2304;47.606;12.186;2023-07-28T06:33:14;9.70;;;4.80;;
4583;SDS011;2304;47.606;12.186;2023-07-28T06:38:16;9.83;;;4.33;;
4583;SDS011;2304;47.606;12.186;2023-07-28T06:43:18;14.70;;;4.87;;
4583;SDS011;2304;47.606;12.186;2023-07-28T06:48:22;8.83;;;4.50;;
4583;SDS011;2304;47.606;12.186;2023-07-28T06:53:24;8.43;;;4.37;;
4583;SDS011;2304;47.606;12.186;2023-07-28T06:58:26;12.30;;;4.47;;
4583;SDS011;2304;47.606;12.186;2023-07-28T07:03:29;6.50;;;3.47;;
4583;SDS011;2304;47.606;12.186;2023-07-28T07:08:31;11.10;;;4.43;;
4583;SDS011;2304;47.606;12.186;2023-07-28T07:13:33;12.73;;;5.23;;
4583;SDS011;2304;47.606;12.186;2023-07-28T07:18:36;9.57;;;5.20;;
4583;SDS011;2304;47.606;12.186;2023-07-28T07:23:38;9.43;;;4.43;;
4583;SDS011;2304;47.606;12.186;2023-07-28T07:28:40;10.03;;;4.73;;
4583;SDS011;2304;47.606;12.186;2023-07-28T07:33:43;9.70;;;5.00;;
4583;SDS011;2304;47.606;12.186;2023-07-28T07:38:45;9.10;;;4.70;;
4583;SDS011;2304;47.606;12.186;2023-07-28T07:43:49;10.20;;;5.07;;
4583;SDS011;2304;47.606;12.186;2023-07-28T07:48:52;9.20;;;5.00;;
4583;SDS011;2304;47.606;12.186;2023-07-28T07:53:54;10.17;;;5.47;;
4583;SDS011;2304;47.606;12.186;2023-07-28T07:58:56;8.53;;;5.30;;
4583;SDS011;2304;47.606;12.186;2023-07-28T08:04:00;8.00;;;4.73;;
4583;SDS011;2304;47.606;12.186;2023-07-28T08:09:02;9.50;;;4.60;;
4583;SDS011;2304;47.606;12.186;2023-07-28T08:14:04;8.03;;;4.87;;
4583;SDS011;2304;47.606;12.186;2023-07-28T08:19:07;9.70;;;4.77;;
4583;SDS011;2304;47.606;12.186;2023-07-28T08:24:09;8.33;;;4.50;;
4583;SDS011;2304;47.606;12.186;2023-07-28T08:29:11;6.03;;;3.87;;
4583;SDS011;2304;47.606;12.186;2023-07-28T08:34:15;8.37;;;3.80;;
4583;SDS011;2304;47.606;12.186;2023-07-28T08:39:17;5.07;;;3.80;;
4583;SDS011;2304;47.606;12.186;2023-07-28T08:44:20;6.33;;;3.97;;
4583;SDS011;2304;47.606;12.186;2023-07-28T08:49:23;7.27;;;3.80;;
4583;SDS011;2304;47.606;12.186;2023-07-28T08:54:26;7.90;;;3.53;;
4583;SDS011;2304;47.606;12.186;2023-07-28T08:59:29;7.20;;;4.20;;
4583;SDS011;2304;47.606;12.186;2023-07-28T09:04:32;6.90;;;3.97;;
4583;SDS011;2304;47.606;12.186;2023-07-28T09:09:34;8.90;;;3.77;;
4583;SDS011;2304;47.606;12.186;2023-07-28T09:14:37;5.27;;;3.37;;
4583;SDS011;2304;47.606;12.186;2023-07-28T09:19:50;5.33;;;3.77;;
4583;SDS011;2304;47.606;12.186;2023-07-28T09:24:52;8.63;;;3.87;;
4583;SDS011;2304;47.606;12.186;2023-07-28T09:29:55;7.80;;;4.37;;
4583;SDS011;2304;47.606;12.186;2023-07-28T09:35:09;6.63;;;3.63;;
4583;SDS011;2304;47.606;12.186;2023-07-28T09:40:13;6.03;;;3.77;;
4583;SDS011;2304;47.606;12.186;2023-07-28T09:45:16;6.30;;;3.73;;
4583;SDS011;2304;47.606;12.186;2023-07-28T09:50:20;5.00;;;3.43;;
4583;SDS011;2304;47.606;12.186;2023-07-28T09:55:26;6.80;;;3.77;;
4583;SDS011;2304;47.606;12.186;2023-07-28T10:00:28;4.80;;;3.33;;
4583;SDS011;2304;47.606;12.186;2023-07-28T10:05:32;5.57;;;3.50;;
4583;SDS011;2304;47.606;12.186;2023-07-28T10:10:35;5.30;;;3.50;;
4583;SDS011;2304;47.606;12.186;2023-07-28T10:15:37;4.53;;;3.80;;
4583;SDS011;2304;47.606;12.186;2023-07-28T10:20:42;5.27;;;3.90;;
4583;SDS011;2304;47.606;12.186;2023-07-28T10:25:55;4.87;;;3.40;;
4583;SDS011;2304;47.606;12.186;2023-07-28T10:30:59;5.80;;;3.60;;
4583;SDS011;2304;47.606;12.186;2023-07-28T10:36:12;10.20;;;3.90;;
4583;SDS011;2304;47.606;12.186;2023-07-28T10:41:16;6.37;;;3.60;;
4583;SDS011;2304;47.606;12.186;2023-07-28T10:46:20;6.00;;;3.57;;
4583;SDS011;2304;47.606;12.186;2023-07-28T10:51:25;4.70;;;3.90;;
4583;SDS011;2304;47.606;12.186;2023-07-28T10:56:31;6.73;;;4.50;;
4583;SDS011;2304;47.606;12.186;2023-07-28T11:01:33;7.80;;;3.40;;
4583;SDS011;2304;47.606;12.186;2023-07-28T11:06:38;4.90;;;3.70;;
4583;SDS011;2304;47.606;12.186;2023-07-28T11:11:42;5.40;;;3.63;;
4583;SDS011;2304;47.606;12.186;2023-07-28T11:16:45;6.80;;;3.10;;
4583;SDS011;2304;47.606;12.186;2023-07-28T11:21:49;4.90;;;3.40;;
4583;SDS011;2304;47.606;12.186;2023-07-28T11:26:51;4.40;;;3.55;;
4583;SDS011;2304;47.606;12.186;2023-07-28T11:31:53;5.70;;;3.40;;
4583;SDS011;2304;47.606;12.186;2023-07-28T11:36:57;7.30;;;3.47;;
4583;SDS011;2304;47.606;12.186;2023-07-28T11:41:59;4.53;;;3.40;;
4583;SDS011;2304;47.606;12.186;2023-07-28T11:47:04;5.80;;;3.50;;
4583;SDS011;2304;47.606;12.186;2023-07-28T11:52:07;4.80;;;3.10;;
4583;SDS011;2304;47.606;12.186;2023-07-28T11:57:09;5.70;;;3.50;;
4583;SDS011;2304;47.606;12.186;2023-07-28T12:02:11;4.90;;;3.73;;
4583;SDS011;2304;47.606;12.186;2023-07-28T12:07:15;5.67;;;3.20;;
4583;SDS011;2304;47.606;12.186;2023-07-28T12:12:18;6.83;;;3.90;;
4583;SDS011;2304;47.606;12.186;2023-07-28T12:17:22;4.60;;;3.40;;
4583;SDS011;2304;47.606;12.186;2023-07-28T12:22:27;5.27;;;3.80;;
4583;SDS011;2304;47.606;12.186;2023-07-28T12:27:29;4.83;;;3.53;;
4583;SDS011;2304;47.606;12.186;2023-07-28T12:32:31;4.77;;;3.63;;
4583;SDS011;2304;47.606;12.186;2023-07-28T12:37:35;5.53;;;3.63;;
4583;SDS011;2304;47.606;12.186;2023-07-28T12:42:37;4.37;;;3.33;;
4583;SDS011;2304;47.606;12.186;2023-07-28T12:47:39;5.40;;;3.90;;
4583;SDS011;2304;47.606;12.186;2023-07-28T12:52:43;5.93;;;3.23;;
4583;SDS011;2304;47.606;12.186;2023-07-28T12:57:46;4.60;;;3.47;;
4583;SDS011;2304;47.606;12.186;2023-07-28T13:02:49;6.50;;;3.70;;
4583;SDS011;2304;47.606;12.186;2023-07-28T13:07:52;6.90;;;4.00;;
4583;SDS011;2304;47.606;12.186;2023-07-28T13:12:54;5.37;;;3.70;;
4583;SDS011;2304;47.606;12.186;2023-07-28T13:17:55;5.40;;;4.07;;
4583;SDS011;2304;47.606;12.186;2023-07-28T13:22:59;7.93;;;4.20;;
4583;SDS011;2304;47.606;12.186;2023-07-28T13:28:00;13.17;;;7.30;;
4583;SDS011;2304;47.606;12.186;2023-07-28T13:33:02;12.10;;;6.40;;
4583;SDS011;2304;47.606;12.186;2023-07-28T13:38:06;6.77;;;5.13;;
4583;SDS011;2304;47.606;12.186;2023-07-28T13:43:08;5.90;;;4.30;;
4583;SDS011;2304;47.606;12.186;2023-07-28T13:48:10;8.20;;;4.10;;
4583;SDS011;2304;47.606;12.186;2023-07-28T13:53:13;8.70;;;4.07;;
4583;SDS011;2304;47.606;12.186;2023-07-28T13:58:15;6.93;;;5.10;;
4583;SDS011;2304;47.606;12.186;2023-07-28T14:03:17;6.23;;;4.43;;
4583;SDS011;2304;47.606;12.186;2023-07-28T14:08:20;5.90;;;3.87;;
4583;SDS011;2304;47.606;12.186;2023-07-28T14:13:22;6.27;;;4.43;;
4583;SDS011;2304;47.606;12.186;2023-07-28T14:18:24;6.40;;;4.50;;
4583;SDS011;2304;47.606;12.186;2023-07-28T14:23:27;5.20;;;4.23;;
4583;SDS011;2304;47.606;12.186;2023-07-28T14:28:29;6.73;;;4.00;;
4583;SDS011;2304;47.606;12.186;2023-07-28T14:33:31;10.57;;;3.97;;
4583;SDS011;2304;47.606;12.186;2023-07-28T14:38:34;7.60;;;4.23;;
4583;SDS011;2304;47.606;12.186;2023-07-28T14:43:36;6.33;;;4.67;;
4583;SDS011;2304;47.606;12.186;2023-07-28T14:48:38;5.03;;;3.77;;
4583;SDS011;2304;47.606;12.186;2023-07-28T14:53:41;5.70;;;4.00;;
4583;SDS011;2304;47.606;12.186;2023-07-28T14:58:45;6.00;;;4.03;;
4583;SDS011;2304;47.606;12.186;2023-07-28T15:03:47;8.50;;;4.70;;
4583;SDS011;2304;47.606;12.186;2023-07-28T15:08:50;5.73;;;4.27;;
4583;SDS011;2304;47.606;12.186;2023-07-28T15:13:52;5.83;;;3.97;;
4583;SDS011;2304;47.606;12.186;2023-07-28T15:18:55;5.23;;;4.07;;
4583;SDS011;2304;47.606;12.186;2023-07-28T15:23:58;6.37;;;4.00;;
4583;SDS011;2304;47.606;12.186;2023-07-28T15:29:00;6.97;;;3.80;;
4583;SDS011;2304;47.606;12.186;2023-07-28T15:34:01;5.60;;;3.90;;
4583;SDS011;2304;47.606;12.186;2023-07-28T15:39:05;6.20;;;4.13;;
4583;SDS011;2304;47.606;12.186;2023-07-28T15:44:08;6.50;;;3.83;;
4583;SDS011;2304;47.606;12.186;2023-07-28T15:49:11;6.67;;;3.90;;
4583;SDS011;2304;47.606;12.186;2023-07-28T15:54:14;5.10;;;3.27;;
4583;SDS011;2304;47.606;12.186;2023-07-28T15:59:16;4.73;;;3.60;;
4583;SDS011;2304;47.606;12.186;2023-07-28T16:04:18;7.67;;;3.57;;
4583;SDS011;2304;47.606;12.186;2023-07-28T16:09:21;5.43;;;3.70;;
4583;SDS011;2304;47.606;12.186;2023-07-28T16:14:23;5.80;;;3.37;;
4583;SDS011;2304;47.606;12.186;2023-07-28T16:19:25;8.73;;;3.40;;
4583;SDS011;2304;47.606;12.186;2023-07-28T16:24:28;7.67;;;3.93;;
4583;SDS011;2304;47.606;12.186;2023-07-28T16:29:30;5.30;;;4.07;;
4583;SDS011;2304;47.606;12.186;2023-07-28T16:34:32;5.67;;;3.43;;
4583;SDS011;2304;47.606;12.186;2023-07-28T16:39:35;5.37;;;3.60;;
4583;SDS011;2304;47.606;12.186;2023-07-28T16:44:37;6.63;;;4.53;;
4583;SDS011;2304;47.606;12.186;2023-07-28T16:49:39;5.30;;;3.43;;
4583;SDS011;2304;47.606;12.186;2023-07-28T16:54:43;6.87;;;3.67;;
4583;SDS011;2304;47.606;12.186;2023-07-28T16:59:45;6.10;;;3.93;;
4583;SDS011;2304;47.606;12.186;2023-07-28T17:04:46;6.40;;;3.83;;
4583;SDS011;2304;47.606;12.186;2023-07-28T17:09:50;4.43;;;3.70;;
4583;SDS011;2304;47.606;12.186;2023-07-28T17:14:51;5.53;;;4.00;;
4583;SDS011;2304;47.606;12.186;2023-07-28T17:19:53;7.00;;;4.07;;
4583;SDS011;2304;47.606;12.186;2023-07-28T17:24:57;7.00;;;4.87;;
4583;SDS011;2304;47.606;12.186;2023-07-28T17:29:58;6.57;;;4.10;;
4583;SDS011;2304;47.606;12.186;2023-07-28T17:35:00;6.23;;;3.97;;
4583;SDS011;2304;47.606;12.186;2023-07-28T17:40:05;4.47;;;3.20;;
4583;SDS011;2304;47.606;12.186;2023-07-28T17:45:08;12.73;;;7.80;;
4583;SDS011;2304;47.606;12.186;2023-07-28T17:50:10;10.40;;;6.93;;
4583;SDS011;2304;47.606;12.186;2023-07-28T17:55:15;18.07;;;10.33;;
4583;SDS011;2304;47.606;12.186;2023-07-28T18:00:17;10.80;;;7.43;;
4583;SDS011;2304;47.606;12.186;2023-07-28T18:05:20;7.90;;;4.97;;
4583;SDS011;2304;47.606;12.186;2023-07-28T18:10:23;6.60;;;4.97;;
4583;SDS011;2304;47.606;12.186;2023-07-28T18:15:25;5.70;;;4.43;;
4583;SDS011;2304;47.606;12.186;2023-07-28T18:20:27;7.50;;;5.40;;
4583;SDS011;2304;47.606;12.186;2023-07-28T18:25:30;5.67;;;4.50;;
4583;SDS011;2304;47.606;12.186;2023-07-28T18:30:32;9.83;;;4.50;;
4583;SDS011;2304;47.606;12.186;2023-07-28T18:35:34;7.90;;;4.60;;
4583;SDS011;2304;47.606;12.186;2023-07-28T18:40:38;5.50;;;4.40;;
4583;SDS011;2304;47.606;12.186;2023-07-28T18:45:39;5.77;;;4.23;;
4583;SDS011;2304;47.606;12.186;2023-07-28T18:50:41;7.07;;;4.10;;
4583;SDS011;2304;47.606;12.186;2023-07-28T18:55:45;8.90;;;4.07;;
4583;SDS011;2304;47.606;12.186;2023-07-28T19:00:46;6.90;;;4.50;;
4583;SDS011;2304;47.606;12.186;2023-07-28T19:05:48;5.17;;;4.10;;
4583;SDS011;2304;47.606;12.186;2023-07-28T19:10:52;7.50;;;4.73;;
4583;SDS011;2304;47.606;12.186;2023-07-28T19:15:53;8.07;;;3.47;;
4583;SDS011;2304;47.606;12.186;2023-07-28T19:20:55;4.70;;;3.40;;
4583;SDS011;2304;47.606;12.186;2023-07-28T19:25:58;4.67;;;3.10;;
4583;SDS011;2304;47.606;12.186;2023-07-28T19:31:00;5.93;;;3.87;;
4583;SDS011;2304;47.606;12.186;2023-07-28T19:36:04;9.10;;;6.30;;
4583;SDS011;2304;47.606;12.186;2023-07-28T19:41:08;10.10;;;3.60;;
4583;SDS011;2304;47.606;12.186;2023-07-28T19:46:10;5.10;;;3.23;;
4583;SDS011;2304;47.606;12.186;2023-07-28T19:51:12;6.40;;;2.90;;
4583;SDS011;2304;47.606;12.186;2023-07-28T19:56:15;4.90;;;3.40;;
4583;SDS011;2304;47.606;12.186;2023-07-28T20:01:17;6.03;;;3.27;;
4583;SDS011;2304;47.606;12.186;2023-07-28T20:06:18;4.97;;;2.90;;
4583;SDS011;2304;47.606;12.186;2023-07-28T20:11:22;6.87;;;2.90;;
4583;SDS011;2304;47.606;12.186;2023-07-28T20:16:23;5.17;;;3.20;;
4583;SDS011;2304;47.606;12.186;2023-07-28T20:21:25;4.90;;;2.90;;
4583;SDS011;2304;47.606;12.186;2023-07-28T20:26:29;5.80;;;3.40;;
4583;SDS011;2304;47.606;12.186;2023-07-28T20:31:31;5.37;;;3.40;;
4583;SDS011;2304;47.606;12.186;2023-07-28T20:36:32;7.57;;;3.43;;
4583;SDS011;2304;47.606;12.186;2023-07-28T20:41:36;5.50;;;2.93;;
4583;SDS011;2304;47.606;12.186;2023-07-28T20:46:38;7.60;;;3.90;;
4583;SDS011;2304;47.606;12.186;2023-07-28T20:51:40;6.87;;;3.73;;
4583;SDS011;2304;47.606;12.186;2023-07-28T20:56:43;7.63;;;4.00;;
4583;SDS011;2304;47.606;12.186;2023-07-28T21:01:45;5.40;;;2.83;;
4583;SDS011;2304;47.606;12.186;2023-07-28T21:06:47;4.20;;;2.90;;
4583;SDS011;2304;47.606;12.186;2023-07-28T21:11:50;8.93;;;3.70;;
4583;SDS011;2304;47.606;12.186;2023-07-28T21:16:52;5.67;;;2.93;;
4583;SDS011;2304;47.606;12.186;2023-07-28T21:21:54;4.53;;;2.80;;
4583;SDS011;2304;47.606;12.186;2023-07-28T21:26:57;4.90;;;3.17;;
4583;SDS011;2304;47.606;12.186;2023-07-28T21:31:59;4.40;;;2.90;;
4583;SDS011;2304;47.606;12.186;2023-07-28T21:37:01;5.20;;;3.03;;
4583;SDS011;2304;47.606;12.186;2023-07-28T21:42:08;4.03;;;2.50;;
4583;SDS011;2304;47.606;12.186;2023-07-28T21:47:10;4.90;;;2.90;;
4583;SDS011;2304;47.606;12.186;2023-07-28T21:52:12;4.67;;;2.60;;
4583;SDS011;2304;47.606;12.186;2023-07-28T21:57:16;5.67;;;2.90;;
4583;SDS011;2304;47.606;12.186;2023-07-28T22:02:17;5.23;;;2.37;;
4583;SDS011;2304;47.606;12.186;2023-07-28T22:07:19;4.80;;;2.80;;
4583;SDS011;2304;47.606;12.186;2023-07-28T22:12:22;5.93;;;3.60;;
4583;SDS011;2304;47.606;12.186;2023-07-28T22:17:25;4.43;;;2.97;;
4583;SDS011;2304;47.606;12.186;2023-07-28T22:22:27;5.30;;;3.03;;
4583;SDS011;2304;47.606;12.186;2023-07-28T22:27:31;4.67;;;2.70;;
4583;SDS011;2304;47.606;12.186;2023-07-28T22:32:32;3.70;;;2.57;;
4583;SDS011;2304;47.606;12.186;2023-07-28T22:37:35;5.77;;;2.43;;
4583;SDS011;2304;47.606;12.186;2023-07-28T22:42:39;4.13;;;2.50;;
4583;SDS011;2304;47.606;12.186;2023-07-28T22:47:41;3.60;;;2.37;;
4583;SDS011;2304;47.606;12.186;2023-07-28T22:52:43;4.20;;;2.57;;
4583;SDS011;2304;47.606;12.186;2023-07-28T22:57:46;4.40;;;2.67;;
4583;SDS011;2304;47.606;12.186;2023-07-28T23:02:48;8.87;;;2.97;;
4583;SDS011;2304;47.606;12.186;2023-07-28T23:07:50;6.07;;;3.70;;
4583;SDS011;2304;47.606;12.186;2023-07-28T23:12:53;5.87;;;3.20;;
4583;SDS011;2304;47.606;12.186;2023-07-28T23:17:55;9.93;;;3.33;;
4583;SDS011;2304;47.606;12.186;2023-07-28T23:22:58;5.53;;;3.03;;
4583;SDS011;2304;47.606;12.186;2023-07-28T23:28:01;6.23;;;3.20;;
4583;SDS011;2304;47.606;12.186;2023-07-28T23:33:03;5.70;;;3.63;;
4583;SDS011;2304;47.606;12.186;2023-07-28T23:38:05;4.47;;;3.23;;
4583;SDS011;2304;47.606;12.186;2023-07-28T23:43:08;5.67;;;3.33;;
4583;SDS011;2304;47.606;12.186;2023-07-28T23:48:10;6.37;;;3.80;;
4583;SDS011;2304;47.606;12.186;2023-07-28T23:53:12;7.13;;;3.83;;
4583;SDS011;2304;47.606;12.186;2023-07-28T23:58:15;4.83;;;3.10;;
